sensor_id;sensor_type;location;lat;lon;timestamp;pressure;altitude;pressure_sealevel;temperature;humidity
67740;BME280;54536;50.090;14.420;2023-03-13T00:01:02;98898.78;;;10.47;61.47
67740;BME280;54536;50.090;14.420;2023-03-13T00:03:34;98894.13;;;10.41;61.24
67740;BME280;54536;50.090;14.420;2023-03-13T00:06:00;98889.63;;;10.51;60.91
67740;BME280;54536;50.090;14.420;2023-03-13T00:08:29;98891.63;;;10.40;60.88
67740;BME280;54536;50.090;14.420;2023-03-13T00:10:56;98904.41;;;10.52;60.46
67740;BME280;54536;50.090;14.420;2023-03-13T00:13:21;98906.75;;;10.55;60.87
67740;BME280;54536;50.090;14.420;2023-03-13T00:15:48;98900.97;;;10.52;60.32
67740;BME280;54536;50.090;14.420;2023-03-13T00:18:14;98900.59;;;10.65;60.65
67740;BME280;54536;50.090;14.420;2023-03-13T00:20:40;98909.47;;;10.64;60.64
67740;BME280;54536;50.090;14.420;2023-03-13T00:23:06;98909.78;;;10.61;60.08
67740;BME280;54536;50.090;14.420;2023-03-13T00:25:32;98902.56;;;10.63;59.96
67740;BME280;54536;50.090;14.420;2023-03-13T00:27:58;98904.81;;;10.58;60.63
67740;BME280;54536;50.090;14.420;2023-03-13T00:30:24;98897.97;;;10.65;59.87
67740;BME280;54536;50.090;14.420;2023-03-13T00:32:50;98892.94;;;10.53;60.57
67740;BME280;54536;50.090;14.420;2023-03-13T00:35:16;98892.72;;;10.65;59.93
67740;BME280;54536;50.090;14.420;2023-03-13T00:37:42;98899.69;;;10.56;60.40
67740;BME280;54536;50.090;14.420;2023-03-13T00:40:09;98907.16;;;10.61;59.99
67740;BME280;54536;50.090;14.420;2023-03-13T00:42:35;98902.88;;;10.60;59.70
67740;BME280;54536;50.090;14.420;2023-03-13T00:45:02;98905.88;;;10.65;59.71
67740;BME280;54536;50.090;14.420;2023-03-13T00:47:28;98896.75;;;10.59;60.36
67740;BME280;54536;50.090;14.420;2023-03-13T00:49:54;98904.66;;;10.59;60.26
67740;BME280;54536;50.090;14.420;2023-03-13T00:52:20;98898.56;;;10.59;59.70
67740;BME280;54536;50.090;14.420;2023-03-13T00:54:46;98901.78;;;10.52;60.27
67740;BME280;54536;50.090;14.420;2023-03-13T00:57:12;98896.25;;;10.73;59.65
67740;BME280;54536;50.090;14.420;2023-03-13T00:59:38;98899.19;;;10.70;59.50
67740;BME280;54536;50.090;14.420;2023-03-13T01:02:04;98889.78;;;10.68;60.07
67740;BME280;54536;50.090;14.420;2023-03-13T01:04:31;98899.19;;;10.70;59.42
67740;BME280;54536;50.090;14.420;2023-03-13T01:06:56;98891.88;;;10.82;58.95
67740;BME280;54536;50.090;14.420;2023-03-13T01:09:23;98900.94;;;10.80;59.63
67740;BME280;54536;50.090;14.420;2023-03-13T01:11:48;98905.81;;;10.74;59.39
67740;BME280;54536;50.090;14.420;2023-03-13T01:14:18;98892.75;;;10.83;59.26
67740;BME280;54536;50.090;14.420;2023-03-13T01:16:45;98897.38;;;10.71;59.74
67740;BME280;54536;50.090;14.420;2023-03-13T01:19:13;98901.22;;;10.76;59.43
67740;BME280;54536;50.090;14.420;2023-03-13T01:21:42;98902.56;;;10.81;59.55
67740;BME280;54536;50.090;14.420;2023-03-13T01:24:09;98909.34;;;10.83;59.41
67740;BME280;54536;50.090;14.420;2023-03-13T01:26:34;98904.97;;;10.92;58.93
67740;BME280;54536;50.090;14.420;2023-03-13T01:29:01;98896.25;;;10.91;59.33
67740;BME280;54536;50.090;14.420;2023-03-13T01:31:30;98890.63;;;10.86;59.39
67740;BME280;54536;50.090;14.420;2023-03-13T01:33:59;98896.19;;;10.83;59.71
67740;BME280;54536;50.090;14.420;2023-03-13T01:36:26;98893.41;;;10.85;59.04
67740;BME280;54536;50.090;14.420;2023-03-13T01:38:55;98890.41;;;10.97;58.98
67740;BME280;54536;50.090;14.420;2023-03-13T01:41:22;98894.31;;;10.93;59.21
67740;BME280;54536;50.090;14.420;2023-03-13T01:43:50;98885.28;;;10.96;58.63
67740;BME280;54536;50.090;14.420;2023-03-13T01:46:19;98876.66;;;10.86;59.49
67740;BME280;54536;50.090;14.420;2023-03-13T01:49:10;98880.47;;;10.91;58.87
67740;BME280;54536;50.090;14.420;2023-03-13T01:51:48;98869.72;;;10.85;58.96
67740;BME280;54536;50.090;14.420;2023-03-13T01:54:22;98866.13;;;10.86;59.67
67740;BME280;54536;50.090;14.420;2023-03-13T01:56:56;98868.38;;;10.81;59.21
67740;BME280;54536;50.090;14.420;2023-03-13T01:59:29;98863.94;;;10.81;59.15
67740;BME280;54536;50.090;14.420;2023-03-13T02:02:00;98863.81;;;10.83;59.67
67740;BME280;54536;50.090;14.420;2023-03-13T02:04:35;98851.78;;;10.80;59.11
67740;BME280;54536;50.090;14.420;2023-03-13T02:07:11;98859.91;;;10.87;59.03
67740;BME280;54536;50.090;14.420;2023-03-13T02:09:42;98853.66;;;10.88;59.01
67740;BME280;54536;50.090;14.420;2023-03-13T02:12:12;98853.28;;;10.83;59.10
67740;BME280;54536;50.090;14.420;2023-03-13T02:14:43;98857.09;;;10.88;59.32
67740;BME280;54536;50.090;14.420;2023-03-13T02:17:10;98859.06;;;10.86;59.49
67740;BME280;54536;50.090;14.420;2023-03-13T02:19:46;98859.22;;;10.85;59.07
67740;BME280;54536;50.090;14.420;2023-03-13T02:22:19;98854.75;;;10.85;59.23
67740;BME280;54536;50.090;14.420;2023-03-13T02:25:11;98855.47;;;10.87;59.15
67740;BME280;54536;50.090;14.420;2023-03-13T02:27:42;98859.06;;;10.86;59.55
67740;BME280;54536;50.090;14.420;2023-03-13T02:30:11;98853.00;;;10.86;58.94
67740;BME280;54536;50.090;14.420;2023-03-13T02:32:38;98863.94;;;10.81;59.11
67740;BME280;54536;50.090;14.420;2023-03-13T02:35:11;98873.19;;;10.85;59.55
67740;BME280;54536;50.090;14.420;2023-03-13T02:37:38;98864.34;;;10.86;59.72
67740;BME280;54536;50.090;14.420;2023-03-13T02:40:11;98869.59;;;10.86;59.26
67740;BME280;54536;50.090;14.420;2023-03-13T02:42:41;98860.03;;;10.85;59.59
67740;BME280;54536;50.090;14.420;2023-03-13T02:45:12;98860.19;;;10.84;59.70
67740;BME280;54536;50.090;14.420;2023-03-13T02:47:38;98855.47;;;10.87;59.01
67740;BME280;54536;50.090;14.420;2023-03-13T02:50:04;98850.66;;;10.83;58.89
67740;BME280;54536;50.090;14.420;2023-03-13T02:52:37;98846.88;;;10.85;59.13
67740;BME280;54536;50.090;14.420;2023-03-13T02:55:11;98849.59;;;10.93;59.07
67740;BME280;54536;50.090;14.420;2023-03-13T02:57:39;98845.53;;;10.81;58.94
67740;BME280;54536;50.090;14.420;2023-03-13T03:00:06;98852.13;;;10.85;59.33
67740;BME280;54536;50.090;14.420;2023-03-13T03:02:38;98845.00;;;10.77;59.35
67740;BME280;54536;50.090;14.420;2023-03-13T03:05:04;98838.84;;;10.87;59.25
67740;BME280;54536;50.090;14.420;2023-03-13T03:07:31;98847.50;;;10.79;58.90
67740;BME280;54536;50.090;14.420;2023-03-13T03:09:57;98845.69;;;10.80;59.80
67740;BME280;54536;50.090;14.420;2023-03-13T03:12:22;98845.63;;;10.89;59.34
67740;BME280;54536;50.090;14.420;2023-03-13T03:14:49;98843.00;;;10.89;58.76
67740;BME280;54536;50.090;14.420;2023-03-13T03:17:14;98837.50;;;10.83;58.81
67740;BME280;54536;50.090;14.420;2023-03-13T03:19:40;98832.09;;;10.84;59.62
67740;BME280;54536;50.090;14.420;2023-03-13T03:22:06;98831.31;;;10.92;59.10
67740;BME280;54536;50.090;14.420;2023-03-13T03:24:33;98834.25;;;10.89;58.91
67740;BME280;54536;50.090;14.420;2023-03-13T03:26:59;98833.44;;;10.88;59.45
67740;BME280;54536;50.090;14.420;2023-03-13T03:29:25;98828.34;;;10.87;58.92
67740;BME280;54536;50.090;14.420;2023-03-13T03:31:52;98827.88;;;10.91;58.94
67740;BME280;54536;50.090;14.420;2023-03-13T03:34:19;98828.16;;;10.88;58.88
67740;BME280;54536;50.090;14.420;2023-03-13T03:36:45;98828.13;;;10.80;58.92
67740;BME280;54536;50.090;14.420;2023-03-13T03:39:11;98821.72;;;10.83;59.17
67740;BME280;54536;50.090;14.420;2023-03-13T03:41:37;98826.13;;;10.82;59.37
67740;BME280;54536;50.090;14.420;2023-03-13T03:44:04;98824.22;;;10.66;60.14
67740;BME280;54536;50.090;14.420;2023-03-13T03:46:30;98824.88;;;10.68;60.13
67740;BME280;54536;50.090;14.420;2023-03-13T03:48:56;98819.31;;;10.71;60.04
67740;BME280;54536;50.090;14.420;2023-03-13T03:51:22;98814.22;;;10.70;59.23
67740;BME280;54536;50.090;14.420;2023-03-13T03:53:48;98818.50;;;10.71;59.66
67740;BME280;54536;50.090;14.420;2023-03-13T03:56:14;98816.56;;;10.73;59.81
67740;BME280;54536;50.090;14.420;2023-03-13T03:58:41;98810.59;;;10.71;59.77
67740;BME280;54536;50.090;14.420;2023-03-13T04:01:07;98809.78;;;10.70;59.04
67740;BME280;54536;50.090;14.420;2023-03-13T04:03:33;98809.41;;;10.83;59.35
67740;BME280;54536;50.090;14.420;2023-03-13T04:05:59;98808.41;;;10.84;59.21
67740;BME280;54536;50.090;14.420;2023-03-13T04:08:26;98804.97;;;10.84;59.13
67740;BME280;54536;50.090;14.420;2023-03-13T04:10:52;98798.06;;;10.83;59.22
67740;BME280;54536;50.090;14.420;2023-03-13T04:13:18;98795.22;;;10.76;59.41
67740;BME280;54536;50.090;14.420;2023-03-13T04:15:44;98782.06;;;10.76;59.24
67740;BME280;54536;50.090;14.420;2023-03-13T04:18:10;98788.66;;;10.62;59.70
67740;BME280;54536;50.090;14.420;2023-03-13T04:20:36;98787.63;;;10.73;58.73
67740;BME280;54536;50.090;14.420;2023-03-13T04:23:03;98789.56;;;10.71;59.21
67740;BME280;54536;50.090;14.420;2023-03-13T04:25:29;98785.13;;;10.71;59.40
67740;BME280;54536;50.090;14.420;2023-03-13T04:27:55;98791.59;;;10.77;59.12
67740;BME280;54536;50.090;14.420;2023-03-13T04:30:21;98789.75;;;10.69;59.23
67740;BME280;54536;50.090;14.420;2023-03-13T04:32:48;98780.31;;;10.85;58.74
67740;BME280;54536;50.090;14.420;2023-03-13T04:35:15;98776.34;;;10.81;58.48
67740;BME280;54536;50.090;14.420;2023-03-13T04:37:42;98777.53;;;10.86;58.69
67740;BME280;54536;50.090;14.420;2023-03-13T04:40:09;98766.59;;;10.73;58.87
67740;BME280;54536;50.090;14.420;2023-03-13T04:42:35;98773.03;;;10.78;58.80
67740;BME280;54536;50.090;14.420;2023-03-13T04:45:01;98764.00;;;10.81;58.60
67740;BME280;54536;50.090;14.420;2023-03-13T04:47:28;98765.75;;;10.72;59.23
67740;BME280;54536;50.090;14.420;2023-03-13T04:49:54;98757.09;;;10.80;59.27
67740;BME280;54536;50.090;14.420;2023-03-13T04:52:20;98766.28;;;10.76;59.28
67740;BME280;54536;50.090;14.420;2023-03-13T04:54:46;98761.34;;;10.73;58.88
67740;BME280;54536;50.090;14.420;2023-03-13T04:57:13;98757.84;;;10.72;58.94
67740;BME280;54536;50.090;14.420;2023-03-13T04:59:39;98751.97;;;10.78;59.26
67740;BME280;54536;50.090;14.420;2023-03-13T05:02:05;98758.22;;;10.77;58.99
67740;BME280;54536;50.090;14.420;2023-03-13T05:04:31;98756.28;;;10.80;58.55
67740;BME280;54536;50.090;14.420;2023-03-13T05:06:57;98743.56;;;10.75;59.01
67740;BME280;54536;50.090;14.420;2023-03-13T05:09:26;98745.16;;;10.86;59.02
67740;BME280;54536;50.090;14.420;2023-03-13T05:11:52;98743.38;;;10.68;58.74
67740;BME280;54536;50.090;14.420;2023-03-13T05:14:18;98738.28;;;10.67;59.66
67740;BME280;54536;50.090;14.420;2023-03-13T05:16:44;98741.72;;;10.67;58.74
67740;BME280;54536;50.090;14.420;2023-03-13T05:19:10;98742.44;;;10.77;59.22
67740;BME280;54536;50.090;14.420;2023-03-13T05:21:36;98742.31;;;10.79;58.71
67740;BME280;54536;50.090;14.420;2023-03-13T05:24:03;98731.03;;;10.69;58.92
67740;BME280;54536;50.090;14.420;2023-03-13T05:26:29;98725.56;;;10.62;59.42
67740;BME280;54536;50.090;14.420;2023-03-13T05:28:55;98720.38;;;10.70;59.17
67740;BME280;54536;50.090;14.420;2023-03-13T05:31:21;98722.25;;;10.78;58.47
67740;BME280;54536;50.090;14.420;2023-03-13T05:33:47;98715.13;;;10.70;58.58
67740;BME280;54536;50.090;14.420;2023-03-13T05:36:13;98705.25;;;10.72;59.17
67740;BME280;54536;50.090;14.420;2023-03-13T05:38:40;98695.13;;;10.77;58.72
67740;BME280;54536;50.090;14.420;2023-03-13T05:41:06;98686.34;;;10.69;58.66
67740;BME280;54536;50.090;14.420;2023-03-13T05:43:32;98687.19;;;10.69;58.25
67740;BME280;54536;50.090;14.420;2023-03-13T05:45:58;98675.72;;;10.78;58.22
67740;BME280;54536;50.090;14.420;2023-03-13T05:48:24;98673.47;;;10.84;58.30
67740;BME280;54536;50.090;14.420;2023-03-13T05:50:51;98683.56;;;10.70;58.77
67740;BME280;54536;50.090;14.420;2023-03-13T05:53:17;98683.09;;;10.75;58.24
67740;BME280;54536;50.090;14.420;2023-03-13T05:55:43;98676.34;;;10.72;58.83
67740;BME280;54536;50.090;14.420;2023-03-13T05:58:09;98661.84;;;10.68;58.36
67740;BME280;54536;50.090;14.420;2023-03-13T06:00:35;98653.66;;;10.71;58.38
67740;BME280;54536;50.090;14.420;2023-03-13T06:03:02;98661.66;;;10.88;58.14
67740;BME280;54536;50.090;14.420;2023-03-13T06:05:27;98658.50;;;10.84;57.90
67740;BME280;54536;50.090;14.420;2023-03-13T06:07:54;98660.13;;;10.85;58.01
67740;BME280;54536;50.090;14.420;2023-03-13T06:10:20;98652.50;;;11.00;57.67
67740;BME280;54536;50.090;14.420;2023-03-13T06:12:54;98658.69;;;10.91;58.25
67740;BME280;54536;50.090;14.420;2023-03-13T06:15:22;98651.31;;;10.94;57.93
67740;BME280;54536;50.090;14.420;2023-03-13T06:17:48;98646.56;;;10.98;57.79
67740;BME280;54536;50.090;14.420;2023-03-13T06:20:14;98644.75;;;10.98;57.90
67740;BME280;54536;50.090;14.420;2023-03-13T06:22:41;98645.59;;;10.99;57.83
67740;BME280;54536;50.090;14.420;2023-03-13T06:25:07;98649.69;;;10.93;57.20
67740;BME280;54536;50.090;14.420;2023-03-13T06:27:34;98647.75;;;11.04;57.21
67740;BME280;54536;50.090;14.420;2023-03-13T06:30:00;98640.53;;;11.06;57.38
67740;BME280;54536;50.090;14.420;2023-03-13T06:32:27;98634.78;;;11.02;57.03
67740;BME280;54536;50.090;14.420;2023-03-13T06:34:53;98631.66;;;11.07;57.37
67740;BME280;54536;50.090;14.420;2023-03-13T06:37:19;98628.19;;;11.06;57.12
67740;BME280;54536;50.090;14.420;2023-03-13T06:39:45;98625.41;;;11.08;56.69
67740;BME280;54536;50.090;14.420;2023-03-13T06:42:12;98631.84;;;11.13;57.10
67740;BME280;54536;50.090;14.420;2023-03-13T06:44:37;98619.69;;;11.12;56.69
67740;BME280;54536;50.090;14.420;2023-03-13T06:47:04;98612.44;;;11.14;56.44
67740;BME280;54536;50.090;14.420;2023-03-13T06:49:30;98606.22;;;11.23;56.30
67740;BME280;54536;50.090;14.420;2023-03-13T06:51:57;98614.59;;;11.19;56.48
67740;BME280;54536;50.090;14.420;2023-03-13T06:54:23;98617.06;;;11.20;56.47
67740;BME280;54536;50.090;14.420;2023-03-13T06:56:50;98619.25;;;11.25;56.69
67740;BME280;54536;50.090;14.420;2023-03-13T06:59:16;98622.50;;;11.19;56.45
67740;BME280;54536;50.090;14.420;2023-03-13T07:01:42;98617.75;;;11.31;56.16
67740;BME280;54536;50.090;14.420;2023-03-13T07:04:11;98612.47;;;11.22;56.13
67740;BME280;54536;50.090;14.420;2023-03-13T07:06:38;98616.13;;;11.30;56.10
67740;BME280;54536;50.090;14.420;2023-03-13T07:09:04;98617.94;;;11.37;55.90
67740;BME280;54536;50.090;14.420;2023-03-13T07:11:31;98606.44;;;11.38;55.93
67740;BME280;54536;50.090;14.420;2023-03-13T07:13:56;98606.44;;;11.38;55.78
67740;BME280;54536;50.090;14.420;2023-03-13T07:16:26;98605.44;;;11.39;55.79
67740;BME280;54536;50.090;14.420;2023-03-13T07:18:52;98606.94;;;11.42;54.93
67740;BME280;54536;50.090;14.420;2023-03-13T07:21:19;98597.22;;;11.42;55.50
67740;BME280;54536;50.090;14.420;2023-03-13T07:23:45;98602.94;;;11.30;55.49
67740;BME280;54536;50.090;14.420;2023-03-13T07:26:14;98595.91;;;11.46;55.56
67740;BME280;54536;50.090;14.420;2023-03-13T07:28:41;98599.88;;;11.51;55.08
67740;BME280;54536;50.090;14.420;2023-03-13T07:31:11;98597.94;;;11.61;55.28
67740;BME280;54536;50.090;14.420;2023-03-13T07:33:38;98591.31;;;11.57;55.21
67740;BME280;54536;50.090;14.420;2023-03-13T07:36:05;98579.13;;;11.47;55.46
67740;BME280;54536;50.090;14.420;2023-03-13T07:38:31;98577.03;;;11.51;55.42
67740;BME280;54536;50.090;14.420;2023-03-13T07:40:58;98584.06;;;11.42;55.78
67740;BME280;54536;50.090;14.420;2023-03-13T07:43:25;98590.81;;;11.45;55.72
67740;BME280;54536;50.090;14.420;2023-03-13T07:46:02;98580.94;;;11.47;56.01
67740;BME280;54536;50.090;14.420;2023-03-13T07:48:34;98574.84;;;11.46;56.12
67740;BME280;54536;50.090;14.420;2023-03-13T07:51:02;98578.16;;;11.48;55.91
67740;BME280;54536;50.090;14.420;2023-03-13T07:53:28;98570.75;;;11.52;56.32
67740;BME280;54536;50.090;14.420;2023-03-13T07:55:58;98563.19;;;11.57;56.02
67740;BME280;54536;50.090;14.420;2023-03-13T07:58:27;98545.75;;;11.72;55.14
67740;BME280;54536;50.090;14.420;2023-03-13T08:00:54;98549.56;;;11.86;55.16
67740;BME280;54536;50.090;14.420;2023-03-13T08:03:22;98540.38;;;11.90;54.73
67740;BME280;54536;50.090;14.420;2023-03-13T08:06:09;98542.66;;;11.93;55.41
67740;BME280;54536;50.090;14.420;2023-03-13T08:08:37;98536.22;;;12.04;55.28
67740;BME280;54536;50.090;14.420;2023-03-13T08:11:07;98535.06;;;12.07;55.11
67740;BME280;54536;50.090;14.420;2023-03-13T08:13:34;98544.75;;;12.06;55.17
67740;BME280;54536;50.090;14.420;2023-03-13T08:16:08;98543.47;;;12.10;54.35
67740;BME280;54536;50.090;14.420;2023-03-13T08:18:36;98540.66;;;12.20;54.39
67740;BME280;54536;50.090;14.420;2023-03-13T08:21:14;98524.31;;;12.33;54.46
67740;BME280;54536;50.090;14.420;2023-03-13T08:23:41;98517.72;;;12.29;53.98
67740;BME280;54536;50.090;14.420;2023-03-13T08:26:11;98520.81;;;12.40;53.90
67740;BME280;54536;50.090;14.420;2023-03-13T08:28:38;98514.22;;;12.45;54.03
67740;BME280;54536;50.090;14.420;2023-03-13T08:31:26;98508.13;;;12.36;53.76
67740;BME280;54536;50.090;14.420;2023-03-13T08:33:52;98496.63;;;12.37;53.43
67740;BME280;54536;50.090;14.420;2023-03-13T08:36:21;98493.47;;;12.41;53.81
67740;BME280;54536;50.090;14.420;2023-03-13T08:38:51;98488.66;;;12.45;53.78
67740;BME280;54536;50.090;14.420;2023-03-13T08:41:21;98486.50;;;12.49;53.82
67740;BME280;54536;50.090;14.420;2023-03-13T08:43:48;98488.66;;;12.45;53.25
67740;BME280;54536;50.090;14.420;2023-03-13T08:46:16;98491.91;;;12.63;52.87
67740;BME280;54536;50.090;14.420;2023-03-13T08:48:42;98486.28;;;12.67;53.34
67740;BME280;54536;50.090;14.420;2023-03-13T08:51:12;98484.78;;;12.72;53.12
67740;BME280;54536;50.090;14.420;2023-03-13T08:53:40;98479.50;;;12.72;53.07
67740;BME280;54536;50.090;14.420;2023-03-13T08:56:11;98491.28;;;12.84;52.31
67740;BME280;54536;50.090;14.420;2023-03-13T08:58:38;98479.31;;;12.74;52.96
67740;BME280;54536;50.090;14.420;2023-03-13T09:01:13;98470.84;;;12.86;52.62
67740;BME280;54536;50.090;14.420;2023-03-13T09:03:40;98465.09;;;12.83;52.36
67740;BME280;54536;50.090;14.420;2023-03-13T09:06:08;98462.88;;;12.95;52.62
67740;BME280;54536;50.090;14.420;2023-03-13T09:08:35;98449.66;;;12.95;52.12
67740;BME280;54536;50.090;14.420;2023-03-13T09:11:11;98464.78;;;13.09;52.12
67740;BME280;54536;50.090;14.420;2023-03-13T09:13:41;98462.38;;;12.99;53.49
67740;BME280;54536;50.090;14.420;2023-03-13T09:16:14;98464.81;;;13.01;53.08
67740;BME280;54536;50.090;14.420;2023-03-13T09:18:41;98460.66;;;13.06;54.05
67740;BME280;54536;50.090;14.420;2023-03-13T09:21:12;98468.78;;;13.05;53.39
67740;BME280;54536;50.090;14.420;2023-03-13T09:23:38;98465.63;;;13.01;52.99
67740;BME280;54536;50.090;14.420;2023-03-13T09:26:05;98478.47;;;13.04;53.64
67740;BME280;54536;50.090;14.420;2023-03-13T09:28:33;98487.59;;;13.02;53.25
67740;BME280;54536;50.090;14.420;2023-03-13T09:31:15;98488.69;;;13.07;53.06
67740;BME280;54536;50.090;14.420;2023-03-13T09:33:44;98480.97;;;13.06;53.11
67740;BME280;54536;50.090;14.420;2023-03-13T09:36:11;98494.16;;;13.06;53.43
67740;BME280;54536;50.090;14.420;2023-03-13T09:38:38;98484.09;;;13.01;54.57
67740;BME280;54536;50.090;14.420;2023-03-13T09:46:43;98474.97;;;13.12;55.50
67740;BME280;54536;50.090;14.420;2023-03-13T09:52:08;98473.63;;;13.24;55.37
67740;BME280;54536;50.090;14.420;2023-03-13T09:57:32;98482.03;;;13.43;55.12
67740;BME280;54536;50.090;14.420;2023-03-13T10:02:39;98455.50;;;13.59;54.89
67740;BME280;54536;50.090;14.420;2023-03-13T10:05:20;98456.78;;;13.63;54.86
67740;BME280;54536;50.090;14.420;2023-03-13T10:07:47;98448.50;;;13.66;54.89
67740;BME280;54536;50.090;14.420;2023-03-13T10:10:18;98436.94;;;13.67;54.24
67740;BME280;54536;50.090;14.420;2023-03-13T10:12:48;98437.41;;;13.86;54.50
67740;BME280;54536;50.090;14.420;2023-03-13T10:15:46;98436.44;;;13.87;54.10
67740;BME280;54536;50.090;14.420;2023-03-13T10:18:19;98436.16;;;13.96;53.56
67740;BME280;54536;50.090;14.420;2023-03-13T10:20:52;98426.41;;;14.12;53.84
67740;BME280;54536;50.090;14.420;2023-03-13T10:23:42;98420.38;;;14.18;53.59
67740;BME280;54536;50.090;14.420;2023-03-13T10:26:28;98406.31;;;14.32;53.49
67740;BME280;54536;50.090;14.420;2023-03-13T10:28:59;98405.03;;;14.43;52.89
67740;BME280;54536;50.090;14.420;2023-03-13T10:31:31;98402.19;;;14.44;53.26
67740;BME280;54536;50.090;14.420;2023-03-13T10:34:08;98416.53;;;14.50;52.93
67740;BME280;54536;50.090;14.420;2023-03-13T10:36:44;98411.97;;;14.59;53.27
67740;BME280;54536;50.090;14.420;2023-03-13T10:39:20;98404.31;;;14.49;53.11
67740;BME280;54536;50.090;14.420;2023-03-13T10:41:48;98412.25;;;14.49;53.71
67740;BME280;54536;50.090;14.420;2023-03-13T10:44:18;98414.72;;;14.50;53.66
67740;BME280;54536;50.090;14.420;2023-03-13T10:46:46;98408.69;;;14.57;53.39
67740;BME280;54536;50.090;14.420;2023-03-13T10:49:22;98408.13;;;14.61;53.85
67740;BME280;54536;50.090;14.420;2023-03-13T10:52:00;98402.00;;;14.61;54.15
67740;BME280;54536;50.090;14.420;2023-03-13T10:54:33;98399.28;;;14.54;54.63
67740;BME280;54536;50.090;14.420;2023-03-13T10:59:49;98397.38;;;14.63;53.77
67740;BME280;54536;50.090;14.420;2023-03-13T11:02:22;98405.91;;;14.65;54.20
67740;BME280;54536;50.090;14.420;2023-03-13T11:04:50;98393.34;;;14.67;54.21
67740;BME280;54536;50.090;14.420;2023-03-13T11:12:45;98380.53;;;14.70;53.91
67740;BME280;54536;50.090;14.420;2023-03-13T11:16:02;98387.50;;;14.71;53.90
67740;BME280;54536;50.090;14.420;2023-03-13T11:18:17;98385.59;;;14.87;53.91
67740;BME280;54536;50.090;14.420;2023-03-13T11:20:47;98384.28;;;14.97;54.06
67740;BME280;54536;50.090;14.420;2023-03-13T11:23:29;98375.03;;;15.08;53.27
67740;BME280;54536;50.090;14.420;2023-03-13T11:32:42;98354.09;;;15.41;52.62
67740;BME280;54536;50.090;14.420;2023-03-13T11:35:49;98341.66;;;15.42;52.61
67740;BME280;54536;50.090;14.420;2023-03-13T11:38:37;98321.19;;;15.29;52.58
67740;BME280;54536;50.090;14.420;2023-03-13T11:41:17;98323.94;;;15.42;52.44
67740;BME280;54536;50.090;14.420;2023-03-13T11:47:04;98335.25;;;15.30;53.35
67740;BME280;54536;50.090;14.420;2023-03-13T12:06:21;98364.69;;;15.41;53.55
67740;BME280;54536;50.090;14.420;2023-03-13T12:09:00;98345.34;;;15.41;53.41
67740;BME280;54536;50.090;14.420;2023-03-13T12:11:39;98341.53;;;15.50;53.43
67740;BME280;54536;50.090;14.420;2023-03-13T12:14:25;98352.69;;;15.45;53.53
67740;BME280;54536;50.090;14.420;2023-03-13T12:17:11;98357.81;;;15.47;52.90
67740;BME280;54536;50.090;14.420;2023-03-13T12:20:05;98349.44;;;15.43;52.94
67740;BME280;54536;50.090;14.420;2023-03-13T12:22:42;98342.28;;;15.44;53.40
67740;BME280;54536;50.090;14.420;2023-03-13T12:28:03;98344.06;;;15.65;53.04
67740;BME280;54536;50.090;14.420;2023-03-13T12:30:39;98334.28;;;15.65;52.93
67740;BME280;54536;50.090;14.420;2023-03-13T12:33:22;98342.53;;;15.77;52.58
67740;BME280;54536;50.090;14.420;2023-03-13T12:38:50;98321.91;;;15.73;52.33
67740;BME280;54536;50.090;14.420;2023-03-13T12:41:30;98315.41;;;15.75;52.75
67740;BME280;54536;50.090;14.420;2023-03-13T12:43:58;98336.28;;;15.91;52.60
67740;BME280;54536;50.090;14.420;2023-03-13T12:49:03;98318.88;;;15.82;52.67
67740;BME280;54536;50.090;14.420;2023-03-13T12:52:13;98318.13;;;15.95;52.16
67740;BME280;54536;50.090;14.420;2023-03-13T13:00:40;98319.53;;;15.84;52.47
67740;BME280;54536;50.090;14.420;2023-03-13T13:06:17;98309.50;;;15.73;52.38
67740;BME280;54536;50.090;14.420;2023-03-13T13:09:05;98300.16;;;15.84;52.58
67740;BME280;54536;50.090;14.420;2023-03-13T13:14:00;98305.28;;;15.92;52.25
67740;BME280;54536;50.090;14.420;2023-03-13T13:16:28;98301.38;;;15.88;52.34
67740;BME280;54536;50.090;14.420;2023-03-13T13:24:56;98290.69;;;16.09;51.92
67740;BME280;54536;50.090;14.420;2023-03-13T13:30:50;98290.28;;;16.12;52.08
67740;BME280;54536;50.090;14.420;2023-03-13T13:32:53;98288.22;;;16.14;52.17
67740;BME280;54536;50.090;14.420;2023-03-13T13:35:39;98293.75;;;16.13;52.02
67740;BME280;54536;50.090;14.420;2023-03-13T13:43:41;98300.50;;;16.15;51.87
67740;BME280;54536;50.090;14.420;2023-03-13T13:46:34;98296.63;;;16.25;51.45
67740;BME280;54536;50.090;14.420;2023-03-13T13:51:35;98282.13;;;16.14;51.78
67740;BME280;54536;50.090;14.420;2023-03-13T13:56:38;98275.81;;;16.28;51.62
67740;BME280;54536;50.090;14.420;2023-03-13T14:01:49;98262.91;;;16.05;51.92
67740;BME280;54536;50.090;14.420;2023-03-13T14:07:05;98270.03;;;16.05;52.69
67740;BME280;54536;50.090;14.420;2023-03-13T14:12:28;98268.63;;;16.02;52.61
67740;BME280;54536;50.090;14.420;2023-03-13T14:15:32;98261.06;;;15.99;52.83
67740;BME280;54536;50.090;14.420;2023-03-13T14:18:20;98260.69;;;16.02;52.43
67740;BME280;54536;50.090;14.420;2023-03-13T14:21:02;98269.25;;;16.11;52.42
67740;BME280;54536;50.090;14.420;2023-03-13T14:23:39;98266.00;;;16.15;51.79
67740;BME280;54536;50.090;14.420;2023-03-13T14:26:23;98270.06;;;16.11;52.37
67740;BME280;54536;50.090;14.420;2023-03-13T14:28:50;98257.44;;;16.20;51.70
67740;BME280;54536;50.090;14.420;2023-03-13T14:31:22;98249.50;;;16.27;52.13
67740;BME280;54536;50.090;14.420;2023-03-13T14:33:49;98243.59;;;16.31;51.83
67740;BME280;54536;50.090;14.420;2023-03-13T14:36:23;98234.81;;;16.31;51.77
67740;BME280;54536;50.090;14.420;2023-03-13T14:39:01;98222.75;;;16.28;52.05
67740;BME280;54536;50.090;14.420;2023-03-13T14:41:45;98227.09;;;16.43;51.39